sensor_id;sensor_type;location;lat;lon;timestamp;temperature;humidity
23591;DHT22;11973;52.098;7.582;2024-01-27T00:00:58;3.50;99.90
23591;DHT22;11973;52.098;7.582;2024-01-27T00:03:25;3.40;99.90
23591;DHT22;11973;52.098;7.582;2024-01-27T00:05:50;3.40;99.90
23591;DHT22;11973;52.098;7.582;2024-01-27T00:08:16;3.40;99.90
23591;DHT22;11973;52.098;7.582;2024-01-27T00:10:42;3.40;99.90
23591;DHT22;11973;52.098;7.582;2024-01-27T00:13:08;3.40;99.90
23591;DHT22;11973;52.098;7.582;2024-01-27T00:15:33;3.40;99.90
23591;DHT22;11973;52.098;7.582;2024-01-27T00:17:59;3.40;99.90
23591;DHT22;11973;52.098;7.582;2024-01-27T00:20:26;3.40;99.90
23591;DHT22;11973;52.098;7.582;2024-01-27T00:22:52;3.40;99.90
23591;DHT22;11973;52.098;7.582;2024-01-27T00:25:17;3.40;99.90
23591;DHT22;11973;52.098;7.582;2024-01-27T00:27:43;3.40;99.90
23591;DHT22;11973;52.098;7.582;2024-01-27T05:17:25;1.60;99.90
23591;DHT22;11973;52.098;7.582;2024-01-27T05:19:51;1.60;99.90
23591;DHT22;11973;52.098;7.582;2024-01-27T05:22:17;1.70;99.90
23591;DHT22;11973;52.098;7.582;2024-01-27T05:24:43;1.60;99.90
23591;DHT22;11973;52.098;7.582;2024-01-27T05:27:09;1.70;99.90
23591;DHT22;11973;52.098;7.582;2024-01-27T05:29:38;1.70;99.90
23591;DHT22;11973;52.098;7.582;2024-01-27T05:32:04;1.60;99.90
23591;DHT22;11973;52.098;7.582;2024-01-27T05:34:29;1.60;99.90
23591;DHT22;11973;52.098;7.582;2024-01-27T05:36:55;1.70;99.90
23591;DHT22;11973;52.098;7.582;2024-01-27T05:39:21;1.60;99.90
23591;DHT22;11973;52.098;7.582;2024-01-27T05:41:47;1.60;99.90
23591;DHT22;11973;52.098;7.582;2024-01-27T05:44:12;1.70;99.90
23591;DHT22;11973;52.098;7.582;2024-01-27T05:46:39;1.60;99.90
23591;DHT22;11973;52.098;7.582;2024-01-27T05:49:05;1.50;99.90
23591;DHT22;11973;52.098;7.582;2024-01-27T05:51:31;1.60;99.90
23591;DHT22;11973;52.098;7.582;2024-01-27T05:53:57;1.50;99.90
23591;DHT22;11973;52.098;7.582;2024-01-27T05:56:23;1.50;99.90
23591;DHT22;11973;52.098;7.582;2024-01-27T05:58:49;1.50;99.90
23591;DHT22;11973;52.098;7.582;2024-01-27T06:01:18;1.70;99.90
23591;DHT22;11973;52.098;7.582;2024-01-27T06:03:45;1.70;99.90
23591;DHT22;11973;52.098;7.582;2024-01-27T06:06:12;1.60;99.90
23591;DHT22;11973;52.098;7.582;2024-01-27T06:08:38;1.60;99.90
23591;DHT22;11973;52.098;7.582;2024-01-27T06:11:04;1.50;99.90
23591;DHT22;11973;52.098;7.582;2024-01-27T06:13:30;1.50;99.90
23591;DHT22;11973;52.098;7.582;2024-01-27T06:15:56;1.50;99.90
23591;DHT22;11973;52.098;7.582;2024-01-27T06:18:21;1.50;99.90
23591;DHT22;11973;52.098;7.582;2024-01-27T06:20:49;1.50;99.90
23591;DHT22;11973;52.098;7.582;2024-01-27T06:23:14;1.50;99.90
23591;DHT22;11973;52.098;7.582;2024-01-27T06:25:40;1.50;99.90
23591;DHT22;11973;52.098;7.582;2024-01-27T06:28:06;1.60;99.90
23591;DHT22;11973;52.098;7.582;2024-01-27T06:30:32;1.50;99.90
23591;DHT22;11973;52.098;7.582;2024-01-27T06:32:57;1.50;99.90
23591;DHT22;11973;52.098;7.582;2024-01-27T06:35:23;1.50;99.90
23591;DHT22;11973;52.098;7.582;2024-01-27T06:37:49;1.60;99.90
23591;DHT22;11973;52.098;7.582;2024-01-27T06:40:16;1.50;99.90
23591;DHT22;11973;52.098;7.582;2024-01-27T06:42:41;1.40;99.90
23591;DHT22;11973;52.098;7.582;2024-01-27T06:45:07;1.40;99.90
23591;DHT22;11973;52.098;7.582;2024-01-27T06:47:33;1.40;99.90
23591;DHT22;11973;52.098;7.582;2024-01-27T06:49:59;1.40;99.90
23591;DHT22;11973;52.098;7.582;2024-01-27T06:52:25;1.40;99.90
23591;DHT22;11973;52.098;7.582;2024-01-27T06:54:50;1.40;99.90
23591;DHT22;11973;52.098;7.582;2024-01-27T06:57:23;1.50;99.90
23591;DHT22;11973;52.098;7.582;2024-01-27T06:59:52;1.50;99.90
23591;DHT22;11973;52.098;7.582;2024-01-27T07:02:28;1.40;99.90
23591;DHT22;11973;52.098;7.582;2024-01-27T07:04:56;1.30;99.90
23591;DHT22;11973;52.098;7.582;2024-01-27T07:07:28;1.30;99.90
23591;DHT22;11973;52.098;7.582;2024-01-27T07:09:57;1.30;99.90
23591;DHT22;11973;52.098;7.582;2024-01-27T07:12:24;1.30;99.90
23591;DHT22;11973;52.098;7.582;2024-01-27T07:14:50;1.30;99.90
23591;DHT22;11973;52.098;7.582;2024-01-27T07:17:16;1.30;99.90
23591;DHT22;11973;52.098;7.582;2024-01-27T07:19:42;1.20;99.90
23591;DHT22;11973;52.098;7.582;2024-01-27T07:22:08;1.30;99.90
23591;DHT22;11973;52.098;7.582;2024-01-27T07:24:34;1.30;99.90
23591;DHT22;11973;52.098;7.582;2024-01-27T07:27:00;1.40;99.90
23591;DHT22;11973;52.098;7.582;2024-01-27T07:29:26;1.30;99.90
23591;DHT22;11973;52.098;7.582;2024-01-27T07:31:52;1.20;99.90
23591;DHT22;11973;52.098;7.582;2024-01-27T07:34:18;1.20;99.90
23591;DHT22;11973;52.098;7.582;2024-01-27T07:36:44;1.20;99.90
23591;DHT22;11973;52.098;7.582;2024-01-27T07:39:11;1.30;99.90
23591;DHT22;11973;52.098;7.582;2024-01-27T07:41:37;1.20;99.90
23591;DHT22;11973;52.098;7.582;2024-01-27T07:44:13;1.20;99.90
23591;DHT22;11973;52.098;7.582;2024-01-27T07:46:41;1.20;99.90
23591;DHT22;11973;52.098;7.582;2024-01-27T07:49:08;1.20;99.90
23591;DHT22;11973;52.098;7.582;2024-01-27T07:51:34;1.30;99.90
23591;DHT22;11973;52.098;7.582;2024-01-27T07:54:00;1.20;99.90
23591;DHT22;11973;52.098;7.582;2024-01-27T07:56:26;1.40;99.90
23591;DHT22;11973;52.098;7.582;2024-01-27T07:58:52;1.20;99.90
23591;DHT22;11973;52.098;7.582;2024-01-27T08:01:19;1.20;99.90
23591;DHT22;11973;52.098;7.582;2024-01-27T08:03:45;1.40;99.90
23591;DHT22;11973;52.098;7.582;2024-01-27T08:06:15;1.30;99.90
23591;DHT22;11973;52.098;7.582;2024-01-27T08:08:46;1.30;99.90
23591;DHT22;11973;52.098;7.582;2024-01-27T08:11:13;1.30;99.90
23591;DHT22;11973;52.098;7.582;2024-01-27T08:13:39;1.30;99.90
23591;DHT22;11973;52.098;7.582;2024-01-27T08:16:05;1.30;99.90
23591;DHT22;11973;52.098;7.582;2024-01-27T08:18:31;1.40;99.90
23591;DHT22;11973;52.098;7.582;2024-01-27T08:20:57;1.40;99.90
23591;DHT22;11973;52.098;7.582;2024-01-27T08:23:23;1.40;99.90
23591;DHT22;11973;52.098;7.582;2024-01-27T08:25:49;1.50;99.90
23591;DHT22;11973;52.098;7.582;2024-01-27T08:28:18;1.50;99.90
23591;DHT22;11973;52.098;7.582;2024-01-27T08:30:44;1.50;99.90
23591;DHT22;11973;52.098;7.582;2024-01-27T08:33:13;1.50;99.90
23591;DHT22;11973;52.098;7.582;2024-01-27T08:35:38;1.60;99.90
23591;DHT22;11973;52.098;7.582;2024-01-27T08:38:04;1.60;99.90
23591;DHT22;11973;52.098;7.582;2024-01-27T08:40:32;1.60;99.90
23591;DHT22;11973;52.098;7.582;2024-01-27T08:42:58;1.70;99.90
23591;DHT22;11973;52.098;7.582;2024-01-27T08:45:30;1.70;99.90
23591;DHT22;11973;52.098;7.582;2024-01-27T08:47:56;1.70;99.90
23591;DHT22;11973;52.098;7.582;2024-01-27T08:50:22;1.90;99.90
23591;DHT22;11973;52.098;7.582;2024-01-27T08:52:47;1.80;99.90
23591;DHT22;11973;52.098;7.582;2024-01-27T08:55:14;1.80;99.90
23591;DHT22;11973;52.098;7.582;2024-01-27T08:57:39;1.90;99.90
23591;DHT22;11973;52.098;7.582;2024-01-27T09:00:06;1.90;99.90
23591;DHT22;11973;52.098;7.582;2024-01-27T09:02:32;1.90;99.90
23591;DHT22;11973;52.098;7.582;2024-01-27T09:04:58;2.00;99.90
23591;DHT22;11973;52.098;7.582;2024-01-27T09:07:24;2.00;99.90
23591;DHT22;11973;52.098;7.582;2024-01-27T09:09:49;2.00;99.90
23591;DHT22;11973;52.098;7.582;2024-01-27T09:12:15;2.10;99.90
23591;DHT22;11973;52.098;7.582;2024-01-27T09:14:41;2.20;99.90
23591;DHT22;11973;52.098;7.582;2024-01-27T09:17:07;2.10;99.90
23591;DHT22;11973;52.098;7.582;2024-01-27T09:19:32;2.30;99.90
23591;DHT22;11973;52.098;7.582;2024-01-27T09:21:58;2.20;99.90
23591;DHT22;11973;52.098;7.582;2024-01-27T09:24:24;2.20;99.90
23591;DHT22;11973;52.098;7.582;2024-01-27T09:26:50;2.30;99.90
23591;DHT22;11973;52.098;7.582;2024-01-27T09:29:17;2.30;99.90
23591;DHT22;11973;52.098;7.582;2024-01-27T09:31:43;2.30;99.90
23591;DHT22;11973;52.098;7.582;2024-01-27T09:34:12;2.40;99.90
23591;DHT22;11973;52.098;7.582;2024-01-27T09:36:41;2.40;99.90
23591;DHT22;11973;52.098;7.582;2024-01-27T09:39:07;2.50;99.90
23591;DHT22;11973;52.098;7.582;2024-01-27T09:41:33;2.50;99.90
23591;DHT22;11973;52.098;7.582;2024-01-27T09:44:01;2.60;99.90
23591;DHT22;11973;52.098;7.582;2024-01-27T09:46:29;2.60;99.90
23591;DHT22;11973;52.098;7.582;2024-01-27T09:48:55;2.70;99.90
23591;DHT22;11973;52.098;7.582;2024-01-27T09:51:24;2.70;99.90
23591;DHT22;11973;52.098;7.582;2024-01-27T09:53:50;2.70;99.90
23591;DHT22;11973;52.098;7.582;2024-01-27T09:56:17;2.80;99.90
23591;DHT22;11973;52.098;7.582;2024-01-27T09:58:47;2.90;99.90
23591;DHT22;11973;52.098;7.582;2024-01-27T10:01:20;2.90;99.90
23591;DHT22;11973;52.098;7.582;2024-01-27T10:03:47;2.90;99.90
23591;DHT22;11973;52.098;7.582;2024-01-27T10:06:13;3.00;99.90
23591;DHT22;11973;52.098;7.582;2024-01-27T10:08:54;3.00;99.90
23591;DHT22;11973;52.098;7.582;2024-01-27T10:11:21;3.10;99.90
23591;DHT22;11973;52.098;7.582;2024-01-27T10:13:55;3.10;99.90
23591;DHT22;11973;52.098;7.582;2024-01-27T10:16:21;3.20;99.90
23591;DHT22;11973;52.098;7.582;2024-01-27T10:18:47;3.20;99.90
23591;DHT22;11973;52.098;7.582;2024-01-27T10:21:17;3.20;99.90
23591;DHT22;11973;52.098;7.582;2024-01-27T10:23:44;3.30;99.90
23591;DHT22;11973;52.098;7.582;2024-01-27T10:26:10;3.30;99.90
23591;DHT22;11973;52.098;7.582;2024-01-27T10:28:36;3.30;99.90
23591;DHT22;11973;52.098;7.582;2024-01-27T10:31:11;3.40;99.90
23591;DHT22;11973;52.098;7.582;2024-01-27T10:33:38;3.40;99.90
23591;DHT22;11973;52.098;7.582;2024-01-27T10:36:05;3.50;99.90
23591;DHT22;11973;52.098;7.582;2024-01-27T10:38:48;3.50;99.90
23591;DHT22;11973;52.098;7.582;2024-01-27T10:41:23;3.60;99.90
23591;DHT22;11973;52.098;7.582;2024-01-27T10:43:53;3.60;99.90
23591;DHT22;11973;52.098;7.582;2024-01-27T10:46:20;3.60;99.90
23591;DHT22;11973;52.098;7.582;2024-01-27T10:48:50;3.70;99.90
23591;DHT22;11973;52.098;7.582;2024-01-27T10:51:31;3.70;99.90
23591;DHT22;11973;52.098;7.582;2024-01-27T10:54:02;3.80;99.90
23591;DHT22;11973;52.098;7.582;2024-01-27T10:56:32;3.90;99.90
23591;DHT22;11973;52.098;7.582;2024-01-27T10:58:59;4.00;99.90
23591;DHT22;11973;52.098;7.582;2024-01-27T11:01:26;4.00;99.90
23591;DHT22;11973;52.098;7.582;2024-01-27T11:03:54;4.00;99.90
23591;DHT22;11973;52.098;7.582;2024-01-27T11:06:22;4.10;99.90
23591;DHT22;11973;52.098;7.582;2024-01-27T11:08:49;4.20;99.90
23591;DHT22;11973;52.098;7.582;2024-01-27T11:11:16;4.20;99.90
23591;DHT22;11973;52.098;7.582;2024-01-27T11:13:43;4.20;99.90
23591;DHT22;11973;52.098;7.582;2024-01-27T11:16:17;4.30;99.90
23591;DHT22;11973;52.098;7.582;2024-01-27T11:18:44;4.40;99.90
23591;DHT22;11973;52.098;7.582;2024-01-27T11:21:17;4.40;99.90
23591;DHT22;11973;52.098;7.582;2024-01-27T11:23:43;4.50;99.90
23591;DHT22;11973;52.098;7.582;2024-01-27T11:26:10;4.50;99.90
23591;DHT22;11973;52.098;7.582;2024-01-27T11:28:40;4.50;99.90
23591;DHT22;11973;52.098;7.582;2024-01-27T11:31:08;4.60;99.90
23591;DHT22;11973;52.098;7.582;2024-01-27T11:33:41;4.60;99.90
23591;DHT22;11973;52.098;7.582;2024-01-27T11:36:22;4.70;99.90
23591;DHT22;11973;52.098;7.582;2024-01-27T11:38:52;4.70;99.90
23591;DHT22;11973;52.098;7.582;2024-01-27T11:41:28;4.80;99.90
23591;DHT22;11973;52.098;7.582;2024-01-27T11:43:55;4.90;99.90
23591;DHT22;11973;52.098;7.582;2024-01-27T11:46:22;5.00;99.90
23591;DHT22;11973;52.098;7.582;2024-01-27T11:48:49;5.00;99.90
23591;DHT22;11973;52.098;7.582;2024-01-27T11:51:15;5.10;99.90
23591;DHT22;11973;52.098;7.582;2024-01-27T11:53:41;5.20;99.90
23591;DHT22;11973;52.098;7.582;2024-01-27T11:56:07;5.30;99.90
23591;DHT22;11973;52.098;7.582;2024-01-27T11:58:33;5.30;99.90
23591;DHT22;11973;52.098;7.582;2024-01-27T12:00:59;5.40;99.90
23591;DHT22;11973;52.098;7.582;2024-01-27T12:03:26;5.40;99.90
23591;DHT22;11973;52.098;7.582;2024-01-27T12:05:53;5.40;99.90
23591;DHT22;11973;52.098;7.582;2024-01-27T12:08:18;5.50;99.90
23591;DHT22;11973;52.098;7.582;2024-01-27T12:10:44;5.60;99.90
23591;DHT22;11973;52.098;7.582;2024-01-27T12:13:11;5.60;99.90
23591;DHT22;11973;52.098;7.582;2024-01-27T12:15:37;5.70;99.90
23591;DHT22;11973;52.098;7.582;2024-01-27T12:18:04;5.70;99.90
23591;DHT22;11973;52.098;7.582;2024-01-27T12:20:30;5.80;99.90
23591;DHT22;11973;52.098;7.582;2024-01-27T12:23:04;5.80;99.90
23591;DHT22;11973;52.098;7.582;2024-01-27T12:25:29;5.80;99.90
23591;DHT22;11973;52.098;7.582;2024-01-27T12:27:55;5.90;99.90
23591;DHT22;11973;52.098;7.582;2024-01-27T12:30:26;5.90;99.90
23591;DHT22;11973;52.098;7.582;2024-01-27T12:32:52;6.00;99.90
23591;DHT22;11973;52.098;7.582;2024-01-27T12:35:18;6.00;99.90
23591;DHT22;11973;52.098;7.582;2024-01-27T12:37:44;6.00;99.90
23591;DHT22;11973;52.098;7.582;2024-01-27T12:40:20;6.10;99.90
23591;DHT22;11973;52.098;7.582;2024-01-27T12:42:47;6.10;99.90
23591;DHT22;11973;52.098;7.582;2024-01-27T12:45:13;6.20;99.90
23591;DHT22;11973;52.098;7.582;2024-01-27T12:47:39;6.20;99.90
23591;DHT22;11973;52.098;7.582;2024-01-27T12:50:06;6.20;99.90
23591;DHT22;11973;52.098;7.582;2024-01-27T12:52:32;6.20;99.90
23591;DHT22;11973;52.098;7.582;2024-01-27T12:54:58;6.30;99.90
23591;DHT22;11973;52.098;7.582;2024-01-27T12:57:24;6.30;99.90
23591;DHT22;11973;52.098;7.582;2024-01-27T12:59:50;6.30;99.90
23591;DHT22;11973;52.098;7.582;2024-01-27T13:02:16;6.30;99.90
23591;DHT22;11973;52.098;7.582;2024-01-27T13:04:42;6.40;99.90
23591;DHT22;11973;52.098;7.582;2024-01-27T13:07:10;6.40;99.90
23591;DHT22;11973;52.098;7.582;2024-01-27T13:09:36;6.40;99.90
23591;DHT22;11973;52.098;7.582;2024-01-27T13:12:03;6.40;99.90
23591;DHT22;11973;52.098;7.582;2024-01-27T13:14:31;6.40;99.90
23591;DHT22;11973;52.098;7.582;2024-01-27T13:16:57;6.50;99.90
23591;DHT22;11973;52.098;7.582;2024-01-27T13:19:26;6.50;99.90
23591;DHT22;11973;52.098;7.582;2024-01-27T13:21:51;6.50;99.90
23591;DHT22;11973;52.098;7.582;2024-01-27T13:24:18;6.50;99.90
23591;DHT22;11973;52.098;7.582;2024-01-27T13:26:43;6.60;99.90
23591;DHT22;11973;52.098;7.582;2024-01-27T13:29:09;6.50;99.90
23591;DHT22;11973;52.098;7.582;2024-01-27T13:31:35;6.60;99.90
23591;DHT22;11973;52.098;7.582;2024-01-27T13:34:01;6.60;99.90
23591;DHT22;11973;52.098;7.582;2024-01-27T13:36:27;6.60;99.90
23591;DHT22;11973;52.098;7.582;2024-01-27T13:38:53;6.60;99.90
23591;DHT22;11973;52.098;7.582;2024-01-27T13:41:20;6.60;99.90
23591;DHT22;11973;52.098;7.582;2024-01-27T13:43:46;6.60;99.90
23591;DHT22;11973;52.098;7.582;2024-01-27T13:46:12;6.60;99.90
23591;DHT22;11973;52.098;7.582;2024-01-27T13:48:39;6.60;99.90
23591;DHT22;11973;52.098;7.582;2024-01-27T13:51:05;6.70;99.90
23591;DHT22;11973;52.098;7.582;2024-01-27T13:53:31;6.70;99.90
23591;DHT22;11973;52.098;7.582;2024-01-27T13:55:59;6.70;99.90
23591;DHT22;11973;52.098;7.582;2024-01-27T13:58:30;6.70;99.90
23591;DHT22;11973;52.098;7.582;2024-01-27T14:00:56;6.70;99.90
23591;DHT22;11973;52.098;7.582;2024-01-27T14:03:22;6.80;99.90
23591;DHT22;11973;52.098;7.582;2024-01-27T14:05:49;6.80;99.90
23591;DHT22;11973;52.098;7.582;2024-01-27T14:08:15;6.80;99.90
23591;DHT22;11973;52.098;7.582;2024-01-27T14:10:43;6.80;99.90
23591;DHT22;11973;52.098;7.582;2024-01-27T14:13:09;6.80;99.90
23591;DHT22;11973;52.098;7.582;2024-01-27T14:15:38;6.80;99.90
23591;DHT22;11973;52.098;7.582;2024-01-27T14:18:04;6.80;99.90
23591;DHT22;11973;52.098;7.582;2024-01-27T14:20:32;6.80;99.90
23591;DHT22;11973;52.098;7.582;2024-01-27T14:23:00;6.70;99.90
23591;DHT22;11973;52.098;7.582;2024-01-27T14:25:26;6.70;99.90
23591;DHT22;11973;52.098;7.582;2024-01-27T14:27:52;6.70;99.90
23591;DHT22;11973;52.098;7.582;2024-01-27T14:30:18;6.70;99.90
23591;DHT22;11973;52.098;7.582;2024-01-27T14:32:43;6.70;99.90
23591;DHT22;11973;52.098;7.582;2024-01-27T14:35:10;6.60;99.90
23591;DHT22;11973;52.098;7.582;2024-01-27T14:37:35;6.60;99.90
23591;DHT22;11973;52.098;7.582;2024-01-27T14:40:02;6.60;99.90
23591;DHT22;11973;52.098;7.582;2024-01-27T14:42:30;6.60;99.90
23591;DHT22;11973;52.098;7.582;2024-01-27T14:44:57;6.60;99.90
23591;DHT22;11973;52.098;7.582;2024-01-27T14:47:23;6.50;99.90
23591;DHT22;11973;52.098;7.582;2024-01-27T14:49:48;6.50;99.90
23591;DHT22;11973;52.098;7.582;2024-01-27T14:52:14;6.50;99.90
23591;DHT22;11973;52.098;7.582;2024-01-27T14:54:40;6.50;99.90
23591;DHT22;11973;52.098;7.582;2024-01-27T14:57:06;6.40;99.90
23591;DHT22;11973;52.098;7.582;2024-01-27T14:59:35;6.40;99.90
23591;DHT22;11973;52.098;7.582;2024-01-27T15:02:01;6.30;99.90
23591;DHT22;11973;52.098;7.582;2024-01-27T15:04:27;6.30;99.90
23591;DHT22;11973;52.098;7.582;2024-01-27T15:06:56;6.20;99.90
23591;DHT22;11973;52.098;7.582;2024-01-27T15:09:23;6.20;99.90
23591;DHT22;11973;52.098;7.582;2024-01-27T15:11:50;6.20;99.90
23591;DHT22;11973;52.098;7.582;2024-01-27T15:14:15;6.10;99.90
23591;DHT22;11973;52.098;7.582;2024-01-27T15:16:42;6.10;99.90
23591;DHT22;11973;52.098;7.582;2024-01-27T15:19:08;6.10;99.90
23591;DHT22;11973;52.098;7.582;2024-01-27T15:21:34;6.00;99.90
23591;DHT22;11973;52.098;7.582;2024-01-27T15:24:00;6.00;99.90
23591;DHT22;11973;52.098;7.582;2024-01-27T15:26:25;5.90;99.90
23591;DHT22;11973;52.098;7.582;2024-01-27T15:28:51;5.90;99.90
23591;DHT22;11973;52.098;7.582;2024-01-27T15:31:17;5.80;99.90
23591;DHT22;11973;52.098;7.582;2024-01-27T15:33:43;5.80;99.90
23591;DHT22;11973;52.098;7.582;2024-01-27T15:36:09;5.70;99.90
23591;DHT22;11973;52.098;7.582;2024-01-27T15:38:34;5.70;99.90
23591;DHT22;11973;52.098;7.582;2024-01-27T15:41:00;5.60;99.90
23591;DHT22;11973;52.098;7.582;2024-01-27T15:43:32;5.50;99.90
23591;DHT22;11973;52.098;7.582;2024-01-27T15:45:57;5.50;99.90
23591;DHT22;11973;52.098;7.582;2024-01-27T15:48:30;5.40;99.90
23591;DHT22;11973;52.098;7.582;2024-01-27T15:50:56;5.30;99.90
23591;DHT22;11973;52.098;7.582;2024-01-27T15:53:21;5.20;99.90
23591;DHT22;11973;52.098;7.582;2024-01-27T15:55:47;5.10;99.90
23591;DHT22;11973;52.098;7.582;2024-01-27T15:58:13;5.00;99.90
23591;DHT22;11973;52.098;7.582;2024-01-27T16:00:39;4.90;99.90
23591;DHT22;11973;52.098;7.582;2024-01-27T16:03:05;4.80;99.90
23591;DHT22;11973;52.098;7.582;2024-01-27T16:05:30;4.70;99.90
23591;DHT22;11973;52.098;7.582;2024-01-27T16:07:57;4.60;99.90
23591;DHT22;11973;52.098;7.582;2024-01-27T16:10:26;4.40;99.90
23591;DHT22;11973;52.098;7.582;2024-01-27T16:12:52;4.40;99.90
23591;DHT22;11973;52.098;7.582;2024-01-27T16:15:17;4.20;99.90
23591;DHT22;11973;52.098;7.582;2024-01-27T16:17:44;4.10;99.90
23591;DHT22;11973;52.098;7.582;2024-01-27T16:20:10;4.00;99.90
23591;DHT22;11973;52.098;7.582;2024-01-27T16:22:37;3.90;99.90
23591;DHT22;11973;52.098;7.582;2024-01-27T16:25:03;3.80;99.90
23591;DHT22;11973;52.098;7.582;2024-01-27T16:27:30;3.70;99.90
23591;DHT22;11973;52.098;7.582;2024-01-27T16:29:56;3.60;99.90
23591;DHT22;11973;52.098;7.582;2024-01-27T16:32:22;3.50;99.90
23591;DHT22;11973;52.098;7.582;2024-01-27T16:34:48;3.40;99.90
23591;DHT22;11973;52.098;7.582;2024-01-27T16:37:14;3.30;99.90
23591;DHT22;11973;52.098;7.582;2024-01-27T16:39:43;3.20;99.90
23591;DHT22;11973;52.098;7.582;2024-01-27T16:42:09;3.20;99.90
23591;DHT22;11973;52.098;7.582;2024-01-27T16:44:35;3.10;99.90
23591;DHT22;11973;52.098;7.582;2024-01-27T16:47:00;3.00;99.90
23591;DHT22;11973;52.098;7.582;2024-01-27T16:49:26;2.90;99.90
23591;DHT22;11973;52.098;7.582;2024-01-27T16:51:52;2.80;99.90
23591;DHT22;11973;52.098;7.582;2024-01-27T16:54:18;2.80;99.90
23591;DHT22;11973;52.098;7.582;2024-01-27T16:56:44;2.70;99.90
23591;DHT22;11973;52.098;7.582;2024-01-27T16:59:09;2.70;99.90
23591;DHT22;11973;52.098;7.582;2024-01-27T17:01:35;2.60;99.90
23591;DHT22;11973;52.098;7.582;2024-01-27T17:04:02;2.50;99.90
23591;DHT22;11973;52.098;7.582;2024-01-27T17:06:28;2.50;99.90
23591;DHT22;11973;52.098;7.582;2024-01-27T17:08:54;2.40;99.90
23591;DHT22;11973;52.098;7.582;2024-01-27T17:11:20;2.40;99.90
23591;DHT22;11973;52.098;7.582;2024-01-27T17:13:45;2.40;99.90
23591;DHT22;11973;52.098;7.582;2024-01-27T17:16:14;2.30;99.90
23591;DHT22;11973;52.098;7.582;2024-01-27T17:18:40;2.20;99.90
23591;DHT22;11973;52.098;7.582;2024-01-27T17:21:06;2.30;99.90
23591;DHT22;11973;52.098;7.582;2024-01-27T17:23:34;2.20;99.90
23591;DHT22;11973;52.098;7.582;2024-01-27T17:26:02;2.10;99.90
23591;DHT22;11973;52.098;7.582;2024-01-27T17:28:28;2.10;99.90
23591;DHT22;11973;52.098;7.582;2024-01-27T17:30:53;2.00;99.90
23591;DHT22;11973;52.098;7.582;2024-01-27T17:33:19;2.00;99.90
23591;DHT22;11973;52.098;7.582;2024-01-27T17:35:45;1.90;99.90
23591;DHT22;11973;52.098;7.582;2024-01-27T17:38:11;1.90;99.90
23591;DHT22;11973;52.098;7.582;2024-01-27T17:40:36;1.90;99.90
23591;DHT22;11973;52.098;7.582;2024-01-27T17:43:02;1.80;99.90
23591;DHT22;11973;52.098;7.582;2024-01-27T17:45:28;1.80;99.90
23591;DHT22;11973;52.098;7.582;2024-01-27T17:47:58;1.80;99.90
23591;DHT22;11973;52.098;7.582;2024-01-27T17:50:29;1.80;99.90
23591;DHT22;11973;52.098;7.582;2024-01-27T17:52:59;1.70;99.90
23591;DHT22;11973;52.098;7.582;2024-01-27T17:55:30;1.70;99.90
23591;DHT22;11973;52.098;7.582;2024-01-27T17:58:06;1.70;99.90
23591;DHT22;11973;52.098;7.582;2024-01-27T18:00:42;1.60;99.90
23591;DHT22;11973;52.098;7.582;2024-01-27T18:03:15;1.60;99.90
23591;DHT22;11973;52.098;7.582;2024-01-27T18:05:41;1.70;99.90
23591;DHT22;11973;52.098;7.582;2024-01-27T18:08:16;1.50;99.90
23591;DHT22;11973;52.098;7.582;2024-01-27T18:10:43;1.50;99.90
23591;DHT22;11973;52.098;7.582;2024-01-27T18:13:09;1.40;99.90
23591;DHT22;11973;52.098;7.582;2024-01-27T18:15:37;1.40;99.90
23591;DHT22;11973;52.098;7.582;2024-01-27T18:18:02;1.40;99.90
23591;DHT22;11973;52.098;7.582;2024-01-27T18:20:28;1.40;99.90
23591;DHT22;11973;52.098;7.582;2024-01-27T18:22:54;1.30;99.90
23591;DHT22;11973;52.098;7.582;2024-01-27T18:25:21;1.30;99.90
23591;DHT22;11973;52.098;7.582;2024-01-27T18:27:48;1.30;99.90
23591;DHT22;11973;52.098;7.582;2024-01-27T18:30:15;1.20;99.90
23591;DHT22;11973;52.098;7.582;2024-01-27T18:32:42;1.20;99.90
23591;DHT22;11973;52.098;7.582;2024-01-27T18:35:09;1.10;99.90
23591;DHT22;11973;52.098;7.582;2024-01-27T18:37:36;1.10;99.90
23591;DHT22;11973;52.098;7.582;2024-01-27T18:40:04;1.10;99.90
23591;DHT22;11973;52.098;7.582;2024-01-27T18:42:31;1.10;99.90
23591;DHT22;11973;52.098;7.582;2024-01-27T18:44:57;1.00;99.90
23591;DHT22;11973;52.098;7.582;2024-01-27T18:47:23;1.20;99.90
23591;DHT22;11973;52.098;7.582;2024-01-27T18:49:55;1.00;99.90
23591;DHT22;11973;52.098;7.582;2024-01-27T18:52:21;1.00;99.90
23591;DHT22;11973;52.098;7.582;2024-01-27T18:54:47;0.90;99.90
23591;DHT22;11973;52.098;7.582;2024-01-27T18:57:13;1.00;99.90
23591;DHT22;11973;52.098;7.582;2024-01-27T18:59:40;1.00;99.90
23591;DHT22;11973;52.098;7.582;2024-01-27T19:02:05;0.80;99.90
23591;DHT22;11973;52.098;7.582;2024-01-27T19:04:31;0.80;99.90
23591;DHT22;11973;52.098;7.582;2024-01-27T19:06:58;0.80;99.90
23591;DHT22;11973;52.098;7.582;2024-01-27T19:09:24;0.80;99.90
23591;DHT22;11973;52.098;7.582;2024-01-27T19:11:50;0.80;99.90
23591;DHT22;11973;52.098;7.582;2024-01-27T19:14:16;0.70;99.90
23591;DHT22;11973;52.098;7.582;2024-01-27T19:16:42;0.70;99.90
23591;DHT22;11973;52.098;7.582;2024-01-27T19:19:08;0.80;99.90
23591;DHT22;11973;52.098;7.582;2024-01-27T19:21:34;0.70;99.90
23591;DHT22;11973;52.098;7.582;2024-01-27T19:24:00;0.70;99.90
23591;DHT22;11973;52.098;7.582;2024-01-27T19:26:26;0.80;99.90
23591;DHT22;11973;52.098;7.582;2024-01-27T19:28:52;0.70;99.90
23591;DHT22;11973;52.098;7.582;2024-01-27T19:31:17;0.70;99.90
23591;DHT22;11973;52.098;7.582;2024-01-27T19:33:44;0.60;99.90
23591;DHT22;11973;52.098;7.582;2024-01-27T19:36:10;0.60;99.90
23591;DHT22;11973;52.098;7.582;2024-01-27T19:38:36;0.70;99.90
23591;DHT22;11973;52.098;7.582;2024-01-27T19:41:02;0.60;99.90
23591;DHT22;11973;52.098;7.582;2024-01-27T19:43:31;0.50;99.90
23591;DHT22;11973;52.098;7.582;2024-01-27T19:46:00;0.50;99.90
23591;DHT22;11973;52.098;7.582;2024-01-27T19:48:26;0.50;99.90
23591;DHT22;11973;52.098;7.582;2024-01-27T19:50:51;0.40;99.90
23591;DHT22;11973;52.098;7.582;2024-01-27T19:53:17;0.50;99.90
23591;DHT22;11973;52.098;7.582;2024-01-27T19:55:47;0.40;99.90
23591;DHT22;11973;52.098;7.582;2024-01-27T19:58:13;0.40;99.90
23591;DHT22;11973;52.098;7.582;2024-01-27T20:00:39;0.30;99.90
23591;DHT22;11973;52.098;7.582;2024-01-27T20:03:05;0.30;99.90
23591;DHT22;11973;52.098;7.582;2024-01-27T20:05:31;0.30;99.90
23591;DHT22;11973;52.098;7.582;2024-01-27T20:07:57;0.40;99.90
23591;DHT22;11973;52.098;7.582;2024-01-27T20:10:25;0.30;99.90
23591;DHT22;11973;52.098;7.582;2024-01-27T20:12:51;0.30;99.90
23591;DHT22;11973;52.098;7.582;2024-01-27T20:15:22;0.30;99.90
23591;DHT22;11973;52.098;7.582;2024-01-27T20:17:49;0.30;99.90
23591;DHT22;11973;52.098;7.582;2024-01-27T20:20:20;0.20;99.90
23591;DHT22;11973;52.098;7.582;2024-01-27T20:22:46;0.10;99.90
23591;DHT22;11973;52.098;7.582;2024-01-27T20:25:12;0.10;99.90
23591;DHT22;11973;52.098;7.582;2024-01-27T20:27:40;0.10;99.90
23591;DHT22;11973;52.098;7.582;2024-01-27T20:30:06;0.20;99.90